Time;durP1;ratioP1;P1;durP2;ratioP2;P2;SDS_P1;SDS_P2;PMS_P1;PMS_P2;Temp;Humidity;BMP_temperature;BMP_pressure;BME280_temperature;BME280_humidity;BME280_pressure;Samples;Min_cycle;Max_cycle;Signal;HPM_P1;HPM_P2
2022/12/26 00:01:29;;;;;;;3.15;1.80;;;16.60;73.90;;;;;;2557318;53;21034;-82
2022/12/26 00:03:56;;;;;;;3.30;1.80;;;16.60;73.90;;;;;;2557607;53;21042;-82
2022/12/26 00:06:24;;;;;;;3.37;1.65;;;16.60;73.90;;;;;;2317554;54;21297;-83
2022/12/26 00:08:50;;;;;;;3.97;1.67;;;16.60;73.80;;;;;;2318434;54;20974;-83
2022/12/26 00:11:17;;;;;;;2.80;1.55;;;16.60;73.90;;;;;;2557197;53;21848;-82
2022/12/26 00:13:43;;;;;;;3.28;1.90;;;16.60;74.00;;;;;;2319022;54;21034;-84
2022/12/26 00:16:17;;;;;;;2.92;1.45;;;16.60;73.80;;;;;;2317286;54;20958;-82
2022/12/26 00:18:43;;;;;;;3.60;1.50;;;16.70;73.50;;;;;;2557551;53;21054;-83
2022/12/26 00:21:11;;;;;;;2.78;1.35;;;16.60;73.70;;;;;;2557005;53;20943;-82
2022/12/26 00:23:37;;;;;;;4.65;1.77;;;16.70;73.80;;;;;;2558258;53;20963;-82
2022/12/26 00:26:08;;;;;;;4.15;1.85;;;16.70;73.90;;;;;;2317909;54;22014;-82
2022/12/26 00:28:34;;;;;;;3.30;1.70;;;16.70;73.80;;;;;;2318580;54;21027;-83
2022/12/26 00:31:05;;;;;;;3.30;1.52;;;16.70;73.80;;;;;;2557596;53;20955;-83
2022/12/26 00:33:32;;;;;;;4.20;1.80;;;16.70;73.40;;;;;;2318686;54;20922;-83
2022/12/26 00:36:03;;;;;;;3.20;1.70;;;16.70;73.80;;;;;;2559854;53;20990;-82
2022/12/26 00:38:30;;;;;;;4.25;1.85;;;16.70;73.30;;;;;;2319971;54;20911;-82
2022/12/26 00:40:57;;;;;;;4.60;1.90;;;16.70;73.60;;;;;;2559509;53;20927;-82
2022/12/26 00:43:24;;;;;;;3.03;1.60;;;16.70;73.60;;;;;;2294465;54;21495;-82
2022/12/26 00:45:50;;;;;;;3.50;1.73;;;16.70;73.60;;;;;;2559676;53;20955;-82
2022/12/26 00:48:16;;;;;;;3.08;1.70;;;16.70;73.60;;;;;;2319696;54;21023;-81
2022/12/26 00:50:42;;;;;;;4.25;1.80;;;16.80;73.70;;;;;;2530798;53;21911;-82
2022/12/26 00:53:09;;;;;;;3.37;1.70;;;16.70;73.60;;;;;;2316810;54;21514;-82
2022/12/26 00:55:35;;;;;;;3.35;1.70;;;16.80;73.60;;;;;;2319859;54;21929;-83
2022/12/26 00:58:01;;;;;;;3.28;1.58;;;16.80;73.60;;;;;;2319948;54;20940;-83
2022/12/26 01:00:27;;;;;;;3.35;2.00;;;16.80;73.60;;;;;;2319572;54;20981;-83
2022/12/26 01:02:54;;;;;;;3.65;1.80;;;16.70;73.50;;;;;;2319804;54;20950;-82
2022/12/26 01:05:20;;;;;;;3.30;1.83;;;16.80;73.70;;;;;;2559322;53;21828;-82
2022/12/26 01:07:46;;;;;;;4.72;1.85;;;16.80;73.70;;;;;;2319802;54;21014;-83
2022/12/26 01:10:13;;;;;;;3.45;1.75;;;16.80;73.70;;;;;;2558831;53;20994;-82
2022/12/26 01:12:39;;;;;;;3.67;2.00;;;16.80;73.60;;;;;;2319532;54;21255;-83
2022/12/26 01:15:06;;;;;;;3.50;2.00;;;16.80;73.70;;;;;;2559235;53;20943;-82
2022/12/26 01:17:32;;;;;;;3.62;1.90;;;16.80;73.60;;;;;;2559449;53;21007;-82
2022/12/26 01:19:59;;;;;;;3.58;1.90;;;16.80;73.60;;;;;;2559237;53;21003;-82
2022/12/26 01:22:25;;;;;;;3.60;1.85;;;16.80;73.60;;;;;;2559259;53;20959;-82
2022/12/26 01:24:55;;;;;;;4.10;1.95;;;16.80;73.60;;;;;;2320266;54;20975;-82
2022/12/26 01:27:21;;;;;;;3.42;1.87;;;16.80;73.30;;;;;;2319627;54;20999;-83
2022/12/26 01:29:47;;;;;;;3.20;1.83;;;16.80;73.50;;;;;;2320141;54;20947;-82
2022/12/26 01:32:14;;;;;;;3.83;2.00;;;16.90;73.60;;;;;;2559098;53;20990;-81
2022/12/26 01:34:41;;;;;;;3.15;1.62;;;16.80;73.50;;;;;;2560341;53;20943;-82
2022/12/26 01:37:08;;;;;;;3.37;1.90;;;16.80;73.50;;;;;;2318923;54;20931;-82
2022/12/26 01:39:34;;;;;;;3.25;1.80;;;16.90;73.60;;;;;;2319793;54;21527;-82
2022/12/26 01:42:01;;;;;;;3.37;1.67;;;16.90;73.50;;;;;;2320038;54;20951;-82
2022/12/26 01:45:02;;;;;;;3.33;1.62;;;16.90;73.60;;;;;;2559199;53;21768;-82
2022/12/26 01:47:50;;;;;;;4.20;1.90;;;16.90;72.50;;;;;;2558816;53;21865;-82
2022/12/26 01:51:00;;;;;;;3.25;1.50;;;16.90;72.20;;;;;;2318501;54;20927;-82
2022/12/26 01:53:38;;;;;;;3.80;1.73;;;16.90;71.80;;;;;;2319290;54;20975;-82
2022/12/26 01:56:07;;;;;;;3.30;1.58;;;16.90;73.00;;;;;;2319204;54;21042;-82
2022/12/26 01:58:37;;;;;;;3.10;1.60;;;16.90;73.50;;;;;;2319044;54;20959;-81
2022/12/26 02:01:03;;;;;;;3.42;1.85;;;16.90;73.40;;;;;;2319312;54;20923;-83
2022/12/26 02:06:15;;;;;;;4.53;1.80;;;16.90;73.60;;;;;;2558947;53;21832;-83
2022/12/26 02:08:42;;;;;;;3.55;1.92;;;16.90;73.60;;;;;;2559936;53;20947;-82
2022/12/26 02:11:23;;;;;;;3.15;1.42;;;16.90;73.50;;;;;;2319640;54;20931;-82
2022/12/26 02:13:49;;;;;;;3.40;1.92;;;17.00;72.50;;;;;;2320298;54;21468;-82
2022/12/26 02:16:16;;;;;;;3.83;1.95;;;16.90;73.40;;;;;;2558961;53;21292;-82
2022/12/26 02:18:43;;;;;;;3.17;1.70;;;17.00;73.60;;;;;;2560778;53;21800;-81
2022/12/26 02:21:34;;;;;;;2.78;1.58;;;17.00;73.60;;;;;;2319622;54;21321;-83
2022/12/26 02:27:58;;;;;;;2.90;1.40;;;17.00;72.20;;;;;;2561594;53;20951;-83
2022/12/26 02:32:05;;;;;;;2.33;1.12;;;17.00;71.90;;;;;;2559935;53;20963;-82
2022/12/26 02:36:06;;;;;;;3.05;1.25;;;17.00;71.70;;;;;;2319980;54;21306;-82
2022/12/26 02:42:34;;;;;;;4.18;1.40;;;17.10;71.70;;;;;;2559850;53;21070;-82
2022/12/26 02:48:37;;;;;;;3.05;1.40;;;17.10;72.70;;;;;;2320766;54;21473;-83
2022/12/26 03:17:18;;;;;;;2.78;1.33;;;17.00;73.90;;;;;;2558772;53;21006;-81
2022/12/26 03:20:01;;;;;;;3.03;1.50;;;17.10;73.80;;;;;;2319602;54;21049;-81
2022/12/26 03:22:31;;;;;;;2.78;1.30;;;17.10;73.10;;;;;;2558946;53;21448;-81
2022/12/26 03:27:44;;;;;;;3.03;1.45;;;17.10;73.70;;;;;;2559750;53;20930;-81
2022/12/26 03:32:56;;;;;;;3.12;1.52;;;17.10;73.70;;;;;;2496272;54;21718;-82
2022/12/26 03:35:22;;;;;;;4.18;1.70;;;17.10;73.60;;;;;;2319113;54;21101;-81
2022/12/26 03:37:56;;;;;;;3.12;1.30;;;17.10;73.50;;;;;;2319840;54;21388;-81
2022/12/26 04:21:05;;;;;;;3.78;1.62;;;17.20;72.90;;;;;;2558377;53;21271;-83
2022/12/26 04:44:13;;;;;;;3.50;1.67;;;17.20;73.30;;;;;;2317272;54;21285;-84
2022/12/26 04:46:43;;;;;;;3.47;1.60;;;17.20;73.30;;;;;;2559227;53;21058;-83
2022/12/26 04:51:56;;;;;;;4.12;1.50;;;17.20;73.10;;;;;;2319815;53;21768;-83
2022/12/26 04:54:23;;;;;;;2.60;1.48;;;17.20;73.10;;;;;;2551713;53;21805;-83
2022/12/26 04:56:49;;;;;;;3.97;1.65;;;17.20;73.10;;;;;;2558859;53;21372;-83
2022/12/26 04:59:16;;;;;;;3.28;1.40;;;17.30;73.10;;;;;;2558745;53;20992;-82
2022/12/26 05:10:01;;;;;;;3.20;1.77;;;17.20;72.40;;;;;;2559509;53;20944;-83
2022/12/26 05:12:28;;;;;;;2.95;1.62;;;17.10;72.80;;;;;;2319104;53;21352;-84
2022/12/26 05:14:55;;;;;;;3.15;1.75;;;17.20;72.90;;;;;;2320011;53;21031;-84
2022/12/26 05:28:41;;;;;;;3.20;1.60;;;17.20;72.80;;;;;;2559009;53;20919;-83
2022/12/26 05:31:15;;;;;;;3.12;1.50;;;17.20;72.90;;;;;;2319369;53;21084;-83
2022/12/26 05:36:41;;;;;;;3.03;1.55;;;17.20;72.90;;;;;;2559088;53;20952;-84
2022/12/26 05:39:07;;;;;;;3.83;1.60;;;17.20;71.70;;;;;;2559459;53;21007;-83
2022/12/26 05:41:34;;;;;;;3.72;1.70;;;17.20;72.90;;;;;;2559037;53;21360;-83
2022/12/26 05:44:00;;;;;;;4.20;1.42;;;17.20;73.00;;;;;;2319772;53;20923;-83
2022/12/26 05:46:27;;;;;;;3.35;1.75;;;17.30;73.10;;;;;;2558668;53;20993;-83
2022/12/26 05:48:53;;;;;;;3.12;1.50;;;17.20;72.90;;;;;;2319905;53;20984;-84
2022/12/26 05:51:19;;;;;;;3.85;1.80;;;17.20;72.90;;;;;;2558948;53;21025;-84
2022/12/26 05:53:47;;;;;;;3.72;1.70;;;17.20;72.90;;;;;;2320220;53;21088;-84
2022/12/26 05:56:14;;;;;;;4.03;2.03;;;17.20;73.60;;;;;;2319179;53;21054;-84
2022/12/26 05:58:40;;;;;;;3.15;1.37;;;17.20;72.80;;;;;;2559712;53;21499;-83
2022/12/26 06:01:12;;;;;;;3.47;1.75;;;17.20;72.90;;;;;;2319419;53;20959;-83
2022/12/26 06:03:38;;;;;;;3.40;1.30;;;17.20;72.70;;;;;;2559963;53;21372;-83
2022/12/26 06:06:05;;;;;;;3.05;1.42;;;17.20;72.90;;;;;;2559468;53;20963;-84
2022/12/26 06:08:31;;;;;;;2.83;1.50;;;17.30;72.90;;;;;;2559055;53;20978;-82
2022/12/26 06:11:02;;;;;;;3.00;1.65;;;17.30;72.90;;;;;;2559412;53;21486;-83
2022/12/26 06:13:28;;;;;;;3.20;1.50;;;17.30;72.70;;;;;;2297148;55;20967;-83
2022/12/26 06:15:55;;;;;;;3.10;1.58;;;17.30;73.00;;;;;;2559433;53;20966;-84
2022/12/26 06:18:22;;;;;;;4.40;1.67;;;17.30;73.00;;;;;;2559126;53;20923;-83
2022/12/26 06:20:48;;;;;;;3.20;1.50;;;17.30;72.90;;;;;;2320021;53;21486;-83
2022/12/26 06:23:15;;;;;;;3.58;1.67;;;17.30;73.00;;;;;;2319643;53;20919;-83
2022/12/26 06:25:41;;;;;;;3.20;1.62;;;17.40;73.10;;;;;;2558953;53;21070;-83
2022/12/26 06:28:07;;;;;;;3.03;1.60;;;17.30;73.00;;;;;;2559572;53;20938;-83
2022/12/26 06:30:34;;;;;;;3.25;1.52;;;17.30;72.90;;;;;;2559357;53;21428;-83
2022/12/26 06:33:00;;;;;;;3.33;1.48;;;17.40;73.10;;;;;;2559250;53;20960;-83
2022/12/26 06:35:27;;;;;;;3.65;1.70;;;17.40;73.00;;;;;;2560129;53;20911;-84
2022/12/26 06:37:53;;;;;;;3.30;1.65;;;17.40;73.00;;;;;;2320387;53;20951;-83
2022/12/26 06:40:20;;;;;;;3.15;1.87;;;17.40;72.90;;;;;;2319458;53;21055;-83
2022/12/26 06:42:46;;;;;;;3.70;1.50;;;17.40;73.00;;;;;;2560266;53;20958;-84
2022/12/26 06:45:13;;;;;;;4.60;1.60;;;17.40;73.00;;;;;;2319811;53;21199;-83
2022/12/26 06:47:39;;;;;;;4.15;1.60;;;17.40;73.00;;;;;;2321380;53;20928;-84
2022/12/26 06:50:06;;;;;;;3.90;1.80;;;17.40;72.90;;;;;;2559890;53;21015;-83
2022/12/26 06:52:32;;;;;;;3.92;1.58;;;17.40;72.80;;;;;;2559972;53;20915;-84
2022/12/26 06:54:58;;;;;;;3.85;1.50;;;17.40;72.90;;;;;;2320215;53;20931;-84
2022/12/26 06:57:24;;;;;;;2.80;1.50;;;17.50;72.90;;;;;;2319148;53;21301;-84
2022/12/26 06:59:51;;;;;;;3.03;1.67;;;17.40;72.90;;;;;;2319878;53;21926;-84
2022/12/26 07:02:17;;;;;;;3.03;1.52;;;17.50;72.90;;;;;;2320818;53;21238;-83
2022/12/26 07:04:43;;;;;;;3.10;1.70;;;17.50;72.90;;;;;;2531323;53;20927;-84
2022/12/26 07:07:09;;;;;;;3.17;1.70;;;17.50;72.80;;;;;;2559108;53;20939;-84
2022/12/26 07:09:36;;;;;;;4.82;1.90;;;17.50;72.70;;;;;;2559386;53;20935;-83
2022/12/26 07:12:02;;;;;;;3.60;1.67;;;17.50;72.70;;;;;;2559054;53;20918;-85
2022/12/26 07:14:29;;;;;;;3.35;1.87;;;17.50;72.70;;;;;;2319386;53;21870;-83
2022/12/26 07:16:55;;;;;;;3.37;1.73;;;17.50;72.70;;;;;;2558851;53;20995;-84
2022/12/26 07:19:22;;;;;;;3.65;1.77;;;17.50;72.60;;;;;;2319229;53;21022;-82
2022/12/26 07:21:48;;;;;;;3.67;1.62;;;17.50;72.60;;;;;;2558911;53;21451;-83
2022/12/26 07:24:20;;;;;;;3.92;1.90;;;17.50;72.50;;;;;;2558419;53;21456;-84
2022/12/26 07:26:48;;;;;;;4.03;1.62;;;17.50;71.90;;;;;;2559207;53;20912;-83
2022/12/26 07:29:14;;;;;;;2.90;1.50;;;17.50;72.60;;;;;;2559173;53;20915;-84
2022/12/26 07:31:40;;;;;;;5.20;1.85;;;17.50;72.60;;;;;;2319269;53;20954;-83
2022/12/26 07:34:07;;;;;;;3.72;1.75;;;17.40;72.40;;;;;;2319670;53;20931;-83
2022/12/26 07:36:33;;;;;;;4.30;1.80;;;17.50;72.50;;;;;;2319181;53;20935;-84
2022/12/26 07:38:59;;;;;;;3.20;1.90;;;17.40;72.40;;;;;;2559646;53;20911;-84
2022/12/26 07:44:12;;;;;;;3.40;1.55;;;17.40;72.50;;;;;;2319793;53;21232;-84
2022/12/26 07:46:38;;;;;;;4.00;1.65;;;17.40;72.60;;;;;;2558790;53;20914;-83
2022/12/26 07:49:04;;;;;;;3.10;1.60;;;17.40;72.70;;;;;;2559384;53;20896;-84
2022/12/26 07:51:30;;;;;;;3.20;1.90;;;17.30;72.70;;;;;;2559036;53;20895;-86
2022/12/26 07:53:57;;;;;;;3.40;1.90;;;17.30;72.70;;;;;;2559532;53;20916;-84
2022/12/26 07:56:23;;;;;;;4.00;1.98;;;17.30;72.80;;;;;;2559249;53;20927;-83
2022/12/26 07:58:49;;;;;;;3.60;2.03;;;17.30;72.70;;;;;;2319592;53;21692;-83
2022/12/26 08:01:16;;;;;;;4.10;2.00;;;17.30;72.80;;;;;;2319560;53;21885;-83
2022/12/26 08:03:42;;;;;;;3.67;1.70;;;17.20;72.60;;;;;;2559193;53;20967;-84
2022/12/26 08:06:10;;;;;;;3.30;1.83;;;17.20;72.60;;;;;;2319958;53;20959;-84
2022/12/26 08:08:36;;;;;;;3.60;1.70;;;17.20;72.40;;;;;;2320278;53;20994;-83
2022/12/26 08:11:03;;;;;;;3.80;2.08;;;17.20;72.40;;;;;;2559657;53;20931;-84
2022/12/26 08:13:30;;;;;;;4.57;2.03;;;17.10;72.20;;;;;;2559408;53;21014;-84
2022/12/26 08:15:56;;;;;;;4.43;2.00;;;17.10;72.30;;;;;;2559593;53;20987;-84
2022/12/26 08:18:23;;;;;;;3.97;1.62;;;17.00;72.20;;;;;;2559190;53;21015;-85
2022/12/26 08:20:50;;;;;;;3.97;2.28;;;17.00;72.40;;;;;;2559577;53;21011;-84
2022/12/26 08:23:16;;;;;;;5.47;2.25;;;17.00;72.50;;;;;;2559562;53;20972;-82
2022/12/26 08:25:43;;;;;;;4.12;2.40;;;16.90;72.60;;;;;;2319747;54;21991;-80
2022/12/26 08:28:09;;;;;;;3.95;2.33;;;16.90;72.60;;;;;;2320070;54;21404;-84
2022/12/26 08:30:38;;;;;;;3.85;2.28;;;16.90;72.50;;;;;;2559955;53;20975;-85
2022/12/26 08:33:05;;;;;;;4.53;1.98;;;16.90;72.30;;;;;;2298286;55;20991;-85
2022/12/26 08:35:35;;;;;;;4.25;2.08;;;16.80;72.30;;;;;;2321276;54;21435;-85
2022/12/26 08:38:02;;;;;;;5.03;2.20;;;16.80;72.20;;;;;;2321853;54;21257;-85
2022/12/26 08:40:28;;;;;;;3.50;2.05;;;16.70;72.20;;;;;;2560716;53;20923;-84
2022/12/26 08:43:07;;;;;;;4.53;1.73;;;16.70;72.20;;;;;;2560263;53;20995;-85
2022/12/26 08:46:11;;;;;;;3.67;1.60;;;16.60;72.20;;;;;;2559985;53;21840;-84
2022/12/26 08:48:38;;;;;;;4.35;2.00;;;16.60;72.30;;;;;;2560366;53;20963;-85
2022/12/26 08:51:07;;;;;;;3.65;1.98;;;16.60;72.40;;;;;;2321181;54;21000;-85
2022/12/26 08:53:34;;;;;;;5.05;2.28;;;16.60;72.40;;;;;;2560750;53;21862;-86
2022/12/26 08:56:01;;;;;;;4.45;2.22;;;16.50;72.50;;;;;;2311324;55;20974;-86
2022/12/26 08:58:27;;;;;;;5.10;2.75;;;16.50;72.50;;;;;;2563544;54;20974;-86
2022/12/26 09:00:54;;;;;;;5.95;2.22;;;16.50;72.50;;;;;;2563018;54;20966;-85
2022/12/26 09:03:21;;;;;;;4.75;2.87;;;16.40;72.30;;;;;;2562296;54;20926;-85
2022/12/26 09:05:47;;;;;;;6.25;4.00;;;16.40;72.40;;;;;;2323428;55;20949;-85
2022/12/26 09:08:13;;;;;;;5.40;3.03;;;16.40;72.50;;;;;;2563764;54;21040;-85
2022/12/26 09:10:40;;;;;;;7.10;3.65;;;16.30;72.40;;;;;;2562698;54;21002;-85
2022/12/26 09:13:06;;;;;;;7.30;4.20;;;16.30;72.40;;;;;;2541549;54;20976;-84
2022/12/26 09:15:32;;;;;;;7.95;4.28;;;16.20;72.40;;;;;;2314429;55;21095;-85
2022/12/26 09:17:59;;;;;;;6.32;3.58;;;16.20;73.20;;;;;;2561069;54;21961;-84
2022/12/26 09:20:25;;;;;;;5.93;3.37;;;16.20;72.60;;;;;;2561572;54;20935;-85
2022/12/26 09:22:51;;;;;;;4.68;2.70;;;16.10;72.50;;;;;;2304120;55;21025;-85
2022/12/26 09:25:22;;;;;;;5.57;3.35;;;16.10;72.50;;;;;;2322294;55;20911;-84
2022/12/26 09:27:49;;;;;;;5.72;3.42;;;16.00;72.40;;;;;;2316002;54;21218;-84
2022/12/26 09:30:19;;;;;;;6.82;3.78;;;16.00;72.60;;;;;;2561270;53;20967;-86
2022/12/26 09:32:46;;;;;;;5.25;2.90;;;16.00;73.50;;;;;;2563369;53;20934;-85
2022/12/26 09:35:12;;;;;;;5.95;2.53;;;15.90;72.60;;;;;;2560742;53;20918;-86
2022/12/26 09:37:38;;;;;;;4.43;2.17;;;15.90;72.50;;;;;;2321142;54;20975;-87
2022/12/26 09:40:17;;;;;;;4.43;2.22;;;15.80;72.40;;;;;;2560304;53;20939;-86
2022/12/26 09:43:32;;;;;;;4.05;2.25;;;15.80;72.40;;;;;;2324186;54;20963;-84
2022/12/26 09:46:12;;;;;;;3.67;1.70;;;15.70;71.70;;;;;;2560931;53;21027;-85
2022/12/26 09:50:17;;;;;;;3.25;1.73;;;15.70;72.40;;;;;;2321686;54;20995;-86
2022/12/26 09:52:57;;;;;;;2.70;1.45;;;15.70;72.70;;;;;;2321479;54;20976;-86
2022/12/26 09:55:55;;;;;;;3.28;1.95;;;15.60;72.60;;;;;;2560327;53;20963;-86
2022/12/26 09:58:47;;;;;;;5.70;2.35;;;15.60;72.30;;;;;;2559071;53;21003;-86
2022/12/26 10:01:25;;;;;;;4.20;2.35;;;15.50;72.40;;;;;;2320498;54;21547;-86
2022/12/26 10:03:55;;;;;;;3.30;1.83;;;15.50;72.90;;;;;;2560965;53;20983;-86
2022/12/26 10:06:27;;;;;;;;;;;15.40;73.00;;;;;;2564269;53;20990;-85
2022/12/26 10:11:52;;;;;;;4.20;1.90;;;15.40;72.20;;;;;;2320888;54;20777;-84
2022/12/26 10:15:52;;;;;;;3.47;1.40;;;15.40;72.70;;;;;;2320412;54;20916;-85
2022/12/26 10:19:12;;;;;;;3.35;1.50;;;15.40;72.50;;;;;;2320689;54;21768;-87
2022/12/26 10:24:20;;;;;;;2.10;1.10;;;15.30;72.60;;;;;;2529288;54;20926;-85
2022/12/26 10:26:59;;;;;;;2.60;1.20;;;15.20;72.60;;;;;;2527647;54;21492;-85
2022/12/26 10:29:33;;;;;;;2.00;0.98;;;15.20;73.20;;;;;;2294153;55;20989;-87
2022/12/26 10:32:03;;;;;;;1.92;0.80;;;15.20;73.40;;;;;;2294548;55;21060;-85
2022/12/26 10:34:40;;;;;;;2.53;0.95;;;15.20;73.60;;;;;;2528057;54;20953;-85
2022/12/26 10:37:18;;;;;;;1.92;0.80;;;15.10;73.60;;;;;;2528043;54;21060;-84
2022/12/26 10:39:56;;;;;;;1.90;0.80;;;15.10;73.50;;;;;;2294251;55;20974;-85
2022/12/26 10:42:49;;;;;;;1.15;0.52;;;15.10;73.50;;;;;;2528293;54;20937;-85
2022/12/26 10:45:17;;;;;;;2.47;0.93;;;15.10;73.20;;;;;;2297257;53;21536;-85
2022/12/26 10:47:44;;;;;;;2.00;0.80;;;15.10;73.90;;;;;;2529848;53;20925;-84
2022/12/26 10:50:24;;;;;;;1.67;0.80;;;15.10;73.80;;;;;;2529370;54;21017;-85
2022/12/26 10:52:53;;;;;;;2.55;1.05;;;15.10;73.50;;;;;;2529836;54;20990;-85
2022/12/26 10:55:22;;;;;;;2.30;1.00;;;15.00;73.70;;;;;;2529217;54;20993;-83
2022/12/26 10:57:50;;;;;;;2.35;1.10;;;15.00;73.70;;;;;;2529680;54;21672;-84
2022/12/26 11:00:26;;;;;;;2.15;1.10;;;15.00;73.70;;;;;;2528401;54;20989;-85
2022/12/26 11:03:12;;;;;;;2.53;1.08;;;15.00;73.30;;;;;;2529151;54;20929;-85
2022/12/26 11:05:43;;;;;;;1.87;0.90;;;15.00;73.30;;;;;;2498555;54;21412;-85
2022/12/26 11:08:48;;;;;;;1.73;0.77;;;15.00;73.60;;;;;;2317067;54;20931;-85
2022/12/26 11:11:45;;;;;;;1.65;0.80;;;15.00;73.60;;;;;;2562318;53;20975;-86
2022/12/26 11:17:42;;;;;;;5.60;2.75;;;15.00;73.40;;;;;;2531313;53;21072;-84
2022/12/26 11:20:44;;;;;;;3.20;1.70;;;15.00;73.00;;;;;;2296644;55;20967;-84
2022/12/26 11:23:27;;;;;;;3.10;1.50;;;15.00;73.00;;;;;;2529625;54;21004;-86
2022/12/26 11:25:55;;;;;;;2.80;1.67;;;15.00;73.60;;;;;;2294290;54;20963;-83
2022/12/26 11:28:32;;;;;;;2.08;0.90;;;15.00;74.20;;;;;;2527900;54;21007;-84
2022/12/26 11:31:04;;;;;;;4.22;2.75;;;14.90;73.80;;;;;;2527651;54;20936;-85
2022/12/26 11:33:43;;;;;;;3.40;2.12;;;14.90;74.20;;;;;;2527550;54;20940;-84
2022/12/26 11:36:21;;;;;;;3.20;1.77;;;15.00;74.00;;;;;;2527010;54;20977;-85
2022/12/26 11:39:01;;;;;;;2.97;1.60;;;15.00;74.10;;;;;;2297536;54;21033;-83
2022/12/26 11:41:39;;;;;;;2.55;1.17;;;14.90;74.00;;;;;;2527732;54;20989;-83
2022/12/26 11:44:28;;;;;;;3.30;1.50;;;15.00;74.20;;;;;;2293754;54;21049;-84
2022/12/26 11:47:10;;;;;;;3.70;1.70;;;15.00;73.90;;;;;;2356995;54;2219221;-85
2022/12/26 11:49:44;;;;;;;4.43;1.65;;;15.00;74.10;;;;;;2527624;54;20965;-84
2022/12/26 11:53:04;;;;;;;4.10;1.50;;;15.00;74.40;;;;;;2527562;54;20965;-84
2022/12/26 11:55:32;;;;;;;3.42;1.50;;;15.00;74.00;;;;;;2527274;54;20941;-84
2022/12/26 11:59:05;;;;;;;3.12;1.40;;;15.00;74.50;;;;;;2293422;54;20937;-84
2022/12/26 12:01:31;;;;;;;3.00;1.25;;;15.00;73.50;;;;;;2293617;54;21087;-85
2022/12/26 12:03:59;;;;;;;2.40;1.10;;;15.00;74.50;;;;;;2527218;54;20937;-83
2022/12/26 12:07:03;;;;;;;3.30;1.58;;;15.00;74.60;;;;;;2293494;54;21005;-85
2022/12/26 12:09:37;;;;;;;2.80;1.35;;;15.00;74.20;;;;;;2293171;54;21001;-85
2022/12/26 12:12:27;;;;;;;2.58;1.33;;;15.10;74.60;;;;;;2527064;54;20993;-84
2022/12/26 12:15:08;;;;;;;2.22;1.00;;;15.10;74.40;;;;;;2293697;54;21637;-84
2022/12/26 12:18:00;;;;;;;2.70;1.23;;;15.10;74.60;;;;;;2293457;54;20993;-85
2022/12/26 12:20:41;;;;;;;3.22;1.37;;;15.10;74.60;;;;;;2527276;54;21002;-84
2022/12/26 12:23:34;;;;;;;3.43;1.50;;;15.10;74.50;;;;;;2528375;54;21437;-82
2022/12/26 12:26:10;;;;;;;2.65;1.30;;;15.10;74.50;;;;;;2528662;54;20972;-85
2022/12/26 12:29:14;;;;;;;2.65;1.15;;;15.10;74.70;;;;;;2295138;54;20932;-85
2022/12/26 12:32:07;;;;;;;2.92;1.30;;;15.10;75.20;;;;;;2528612;54;20984;-84
2022/12/26 12:34:50;;;;;;;2.33;1.12;;;15.10;74.70;;;;;;2528551;54;21446;-83
2022/12/26 12:37:43;;;;;;;2.53;1.10;;;15.10;74.70;;;;;;2555946;53;21387;-85
2022/12/26 12:40:50;;;;;;;1.52;0.75;;;15.10;74.50;;;;;;2316163;55;22320;-85
2022/12/26 12:43:36;;;;;;;2.20;0.88;;;15.10;74.40;;;;;;2561593;54;21824;-84
2022/12/26 12:46:25;;;;;;;1.60;0.70;;;15.10;75.00;;;;;;2561340;54;20986;-84
2022/12/26 12:49:44;;;;;;;3.85;0.90;;;15.10;74.40;;;;;;2561657;54;20902;-84
2022/12/26 12:59:14;;;;;;;2.25;0.90;;;15.10;74.90;;;;;;2561604;54;21025;-85
2022/12/26 13:01:48;;;;;;;1.87;0.80;;;15.10;74.40;;;;;;2561390;54;21814;-85
2022/12/26 13:04:25;;;;;;;2.22;0.90;;;15.20;74.70;;;;;;2561832;54;20930;-84
2022/12/26 13:06:57;;;;;;;2.03;0.93;;;15.10;74.50;;;;;;2321215;55;20906;-84
2022/12/26 13:09:34;;;;;;;2.40;0.90;;;15.10;74.60;;;;;;2560507;54;21442;-83
2022/12/26 13:12:05;;;;;;;2.28;0.98;;;15.10;74.60;;;;;;2560205;54;20994;-83
2022/12/26 13:14:37;;;;;;;2.28;0.80;;;15.10;74.90;;;;;;2315960;55;22074;-83
2022/12/26 13:17:10;;;;;;;2.17;0.90;;;15.10;74.90;;;;;;2544522;54;20926;-83
2022/12/26 13:19:58;;;;;;;1.98;0.90;;;15.10;74.70;;;;;;2560436;54;21494;-84
2022/12/26 13:24:23;;;;;;;1.73;0.75;;;15.10;74.20;;;;;;2320512;55;20942;-83
2022/12/26 13:27:08;;;;;;;1.92;0.80;;;15.10;73.90;;;;;;2560852;54;21435;-84
2022/12/26 13:29:39;;;;;;;1.85;0.82;;;15.10;74.50;;;;;;2560600;54;20950;-83
2022/12/26 13:32:26;;;;;;;1.90;0.82;;;15.10;74.70;;;;;;2319674;55;21775;-84
2022/12/26 13:34:54;;;;;;;3.12;1.00;;;14.90;74.20;;;;;;2550687;54;21029;-84
2022/12/26 13:45:09;;;;;;;1.87;0.90;;;15.10;74.80;;;;;;2320754;55;20921;-83
2022/12/26 13:47:36;;;;;;;1.67;0.70;;;15.10;73.80;;;;;;2560089;54;20954;-84
2022/12/26 13:51:40;;;;;;;1.75;0.70;;;15.10;74.70;;;;;;2320257;55;20967;-85
2022/12/26 13:54:09;;;;;;;2.00;0.80;;;15.10;73.70;;;;;;2560281;54;20962;-84
2022/12/26 13:58:05;;;;;;;1.42;0.70;;;15.10;74.70;;;;;;2560237;54;20997;-83
2022/12/26 14:00:45;;;;;;;2.72;1.20;;;15.10;73.70;;;;;;2560171;54;20991;-84
2022/12/26 14:04:54;;;;;;;2.72;1.27;;;15.10;74.40;;;;;;2320038;54;20958;-84
2022/12/26 14:14:29;;;;;;;3.75;1.67;;;15.10;74.20;;;;;;2320459;55;20934;-83
2022/12/26 14:23:46;;;;;;;3.08;1.10;;;15.10;74.10;;;;;;2559887;54;20942;-84
2022/12/26 14:32:51;;;;;;;1.55;0.70;;;15.10;73.70;;;;;;2314043;54;20931;-84
2022/12/26 14:36:55;;;;;;;1.90;0.80;;;15.10;73.60;;;;;;2527701;54;21901;-82
2022/12/26 14:39:54;;;;;;;1.40;0.60;;;15.00;74.30;;;;;;2293595;55;20929;-81
2022/12/26 14:45:36;;;;;;;3.05;1.20;;;15.00;74.70;;;;;;2294155;55;21699;-84
2022/12/26 14:49:54;;;;;;;2.40;1.10;;;15.00;74.60;;;;;;2528251;54;20945;-84
2022/12/26 14:52:39;;;;;;;2.33;0.95;;;15.00;73.60;;;;;;2526818;54;21426;-84
2022/12/26 14:55:40;;;;;;;2.60;0.80;;;15.00;74.20;;;;;;2293024;55;20984;-84
2022/12/26 14:58:44;;;;;;;2.42;1.08;;;15.00;74.00;;;;;;2527218;54;21016;-83
2022/12/26 15:02:29;;;;;;;2.15;0.85;;;15.00;74.20;;;;;;2526668;54;21378;-84
2022/12/26 15:05:05;;;;;;;2.20;0.90;;;15.00;73.90;;;;;;2527597;54;21441;-81
2022/12/26 15:10:59;;;;;;;1.92;0.80;;;15.00;74.80;;;;;;2292910;55;21008;-83
2022/12/26 15:14:00;;;;;;;1.55;0.68;;;15.00;73.80;;;;;;2293478;55;20925;-83
2022/12/26 15:17:35;;;;;;;1.33;0.60;;;14.90;74.10;;;;;;2527332;54;20994;-83
2022/12/26 15:22:43;;;;;;;2.30;0.70;;;15.00;74.30;;;;;;2293020;55;21091;-84
2022/12/26 15:28:14;;;;;;;2.37;0.80;;;15.00;73.90;;;;;;2527662;54;21052;-83
2022/12/26 15:34:18;;;;;;;1.48;0.62;;;14.90;74.00;;;;;;2527399;54;21392;-82
2022/12/26 15:40:10;;;;;;;2.22;1.15;;;15.00;74.70;;;;;;2528127;54;21457;-83
2022/12/26 15:43:44;;;;;;;3.78;0.90;;;15.00;73.90;;;;;;2528319;54;21571;-85
2022/12/26 15:46:28;;;;;;;2.75;1.20;;;15.00;74.30;;;;;;2528219;54;21030;-83
2022/12/26 15:49:26;;;;;;;2.62;1.15;;;15.00;74.80;;;;;;2527869;54;20940;-83
2022/12/26 15:52:09;;;;;;;3.20;1.20;;;15.00;74.50;;;;;;2293999;55;20983;-84
2022/12/26 15:59:50;;;;;;;2.10;1.00;;;15.00;74.60;;;;;;2527897;54;21955;-83
2022/12/26 16:03:31;;;;;;;2.22;0.80;;;15.00;74.00;;;;;;2527343;54;20978;-83
2022/12/26 16:13:53;;;;;;;4.57;2.15;;;15.00;73.80;;;;;;2527192;54;21059;-83
2022/12/26 16:16:30;;;;;;;2.10;0.80;;;15.00;73.80;;;;;;2527173;54;21009;-82
2022/12/26 16:18:56;;;;;;;2.70;1.10;;;15.00;74.70;;;;;;2527523;54;20965;-83
2022/12/26 16:24:09;;;;;;;3.60;1.75;;;15.00;75.00;;;;;;2293403;54;20982;-83
2022/12/26 16:26:42;;;;;;;3.33;1.50;;;15.00;75.10;;;;;;2527573;54;20953;-83
2022/12/26 16:29:12;;;;;;;2.67;1.15;;;15.00;74.90;;;;;;2526972;54;20992;-83
2022/12/26 16:31:38;;;;;;;3.00;1.20;;;15.00;75.00;;;;;;2293180;54;20965;-83
2022/12/26 16:34:05;;;;;;;2.50;1.10;;;15.00;75.00;;;;;;2527032;54;20918;-84
2022/12/26 16:36:34;;;;;;;2.78;1.35;;;15.00;75.00;;;;;;2292778;54;21573;-82
2022/12/26 16:39:01;;;;;;;3.83;1.85;;;15.00;75.00;;;;;;2527395;54;21073;-83
2022/12/26 16:41:28;;;;;;;3.67;1.30;;;15.10;75.20;;;;;;2527396;54;21529;-82
2022/12/26 16:43:56;;;;;;;3.58;1.52;;;15.10;75.10;;;;;;2527636;54;21005;-83
2022/12/26 16:46:25;;;;;;;3.12;1.50;;;15.10;75.00;;;;;;2293330;54;21021;-83
2022/12/26 16:48:57;;;;;;;2.22;0.90;;;15.10;75.00;;;;;;2293184;54;20989;-83
2022/12/26 16:51:53;;;;;;;3.33;1.40;;;15.10;74.70;;;;;;2292995;54;21045;-83
2022/12/26 16:54:41;;;;;;;2.40;1.02;;;15.10;74.30;;;;;;2527010;54;21022;-83
2022/12/26 16:57:18;;;;;;;2.53;1.02;;;15.10;74.50;;;;;;2526780;54;21001;-83
2022/12/26 16:59:54;;;;;;;2.28;1.17;;;15.10;74.90;;;;;;2526324;54;20962;-83
2022/12/26 17:02:28;;;;;;;3.00;1.20;;;15.10;74.80;;;;;;2279652;54;21484;-83
2022/12/26 17:05:24;;;;;;;2.58;1.17;;;15.10;74.60;;;;;;2546710;53;20908;-82
2022/12/26 17:07:51;;;;;;;2.22;1.10;;;15.10;74.20;;;;;;2279683;55;20969;-82
2022/12/26 17:10:23;;;;;;;2.17;1.10;;;15.10;74.90;;;;;;2523992;54;22149;-82
2022/12/26 17:12:49;;;;;;;2.50;1.17;;;15.10;74.80;;;;;;2526801;54;20983;-82